sensor_id;sensor_type;location;lat;lon;timestamp;pressure;altitude;pressure_sealevel;temperature;humidity
9831;BME280;4954;48.476;8.168;2024-02-28T00:02:13;98378.53;;;6.11;nan
9831;BME280;4954;48.476;8.168;2024-02-28T00:04:40;98387.78;;;6.11;nan
9831;BME280;4954;48.476;8.168;2024-02-28T00:07:07;98382.78;;;6.12;nan
9831;BME280;4954;48.476;8.168;2024-02-28T00:09:34;98390.34;;;6.12;nan
9831;BME280;4954;48.476;8.168;2024-02-28T00:12:01;98395.41;;;6.12;nan
9831;BME280;4954;48.476;8.168;2024-02-28T00:14:29;98389.53;;;6.13;nan
9831;BME280;4954;48.476;8.168;2024-02-28T00:16:56;98392.94;;;6.15;nan
9831;BME280;4954;48.476;8.168;2024-02-28T00:19:23;98392.97;;;6.17;nan
9831;BME280;4954;48.476;8.168;2024-02-28T00:21:51;98398.13;;;6.20;nan
9831;BME280;4954;48.476;8.168;2024-02-28T00:24:18;98405.75;;;6.23;nan
9831;BME280;4954;48.476;8.168;2024-02-28T00:26:45;98396.53;;;6.23;nan
9831;BME280;4954;48.476;8.168;2024-02-28T00:29:12;98395.00;;;6.30;nan
9831;BME280;4954;48.476;8.168;2024-02-28T00:31:40;98393.41;;;6.33;nan
9831;BME280;4954;48.476;8.168;2024-02-28T00:34:07;98396.81;;;6.35;nan
9831;BME280;4954;48.476;8.168;2024-02-28T00:36:34;98382.53;;;6.36;nan
9831;BME280;4954;48.476;8.168;2024-02-28T00:39:01;98391.81;;;6.37;nan
9831;BME280;4954;48.476;8.168;2024-02-28T00:41:29;98391.81;;;6.37;nan
9831;BME280;4954;48.476;8.168;2024-02-28T00:43:56;98396.81;;;6.34;nan
9831;BME280;4954;48.476;8.168;2024-02-28T00:46:23;98404.34;;;6.32;nan
9831;BME280;4954;48.476;8.168;2024-02-28T00:48:51;98401.88;;;6.34;nan
9831;BME280;4954;48.476;8.168;2024-02-28T00:51:18;98398.47;;;6.33;nan
9831;BME280;4954;48.476;8.168;2024-02-28T00:53:45;98405.28;;;6.36;nan
9831;BME280;4954;48.476;8.168;2024-02-28T00:56:12;98409.53;;;6.38;nan
9831;BME280;4954;48.476;8.168;2024-02-28T00:58:39;98406.19;;;6.39;nan
9831;BME280;4954;48.476;8.168;2024-02-28T01:01:06;98402.06;;;6.41;nan
9831;BME280;4954;48.476;8.168;2024-02-28T01:03:33;98406.28;;;6.42;nan
9831;BME280;4954;48.476;8.168;2024-02-28T01:06:01;98403.75;;;6.42;nan
9831;BME280;4954;48.476;8.168;2024-02-28T01:08:29;98407.16;;;6.44;nan
9831;BME280;4954;48.476;8.168;2024-02-28T01:10:56;98417.28;;;6.44;nan
9831;BME280;4954;48.476;8.168;2024-02-28T01:13:24;98412.22;;;6.43;nan
9831;BME280;4954;48.476;8.168;2024-02-28T01:15:51;98416.44;;;6.44;nan
9831;BME280;4954;48.476;8.168;2024-02-28T01:18:18;98414.75;;;6.44;nan
9831;BME280;4954;48.476;8.168;2024-02-28T01:20:45;98411.38;;;6.44;nan
9831;BME280;4954;48.476;8.168;2024-02-28T01:23:13;98413.03;;;6.43;nan
9831;BME280;4954;48.476;8.168;2024-02-28T01:25:40;98412.16;;;6.41;nan
9831;BME280;4954;48.476;8.168;2024-02-28T01:28:07;98418.03;;;6.40;nan
9831;BME280;4954;48.476;8.168;2024-02-28T01:30:34;98418.00;;;6.39;nan
9831;BME280;4954;48.476;8.168;2024-02-28T01:33:01;98410.47;;;6.40;nan
9831;BME280;4954;48.476;8.168;2024-02-28T01:35:28;98410.47;;;6.40;nan
9831;BME280;4954;48.476;8.168;2024-02-28T01:37:55;98396.19;;;6.42;nan
9831;BME280;4954;48.476;8.168;2024-02-28T01:40:23;98409.69;;;6.43;nan
9831;BME280;4954;48.476;8.168;2024-02-28T01:42:50;98404.63;;;6.43;nan
9831;BME280;4954;48.476;8.168;2024-02-28T01:45:17;98409.72;;;6.46;nan
9831;BME280;4954;48.476;8.168;2024-02-28T01:47:44;98410.56;;;6.45;nan
9831;BME280;4954;48.476;8.168;2024-02-28T01:50:12;98416.53;;;6.48;nan
9831;BME280;4954;48.476;8.168;2024-02-28T01:52:39;98419.03;;;6.47;nan
9831;BME280;4954;48.476;8.168;2024-02-28T01:55:08;98413.03;;;6.43;nan
9831;BME280;4954;48.476;8.168;2024-02-28T01:57:37;98422.28;;;6.41;nan
9831;BME280;4954;48.476;8.168;2024-02-28T02:00:06;98419.75;;;6.41;nan
9831;BME280;4954;48.476;8.168;2024-02-28T02:02:34;98430.69;;;6.40;nan
9831;BME280;4954;48.476;8.168;2024-02-28T02:05:02;98425.50;;;6.36;nan
9831;BME280;4954;48.476;8.168;2024-02-28T02:07:29;98429.53;;;6.29;nan
9831;BME280;4954;48.476;8.168;2024-02-28T02:09:57;98437.03;;;6.26;nan
9831;BME280;4954;48.476;8.168;2024-02-28T02:12:24;98434.28;;;6.17;nan
9831;BME280;4954;48.476;8.168;2024-02-28T02:14:52;98435.69;;;6.08;nan
9831;BME280;4954;48.476;8.168;2024-02-28T02:17:19;98440.63;;;6.03;nan
9831;BME280;4954;48.476;8.168;2024-02-28T02:19:46;98435.38;;;5.96;nan
9831;BME280;4954;48.476;8.168;2024-02-28T02:22:13;98440.41;;;5.96;nan
9831;BME280;4954;48.476;8.168;2024-02-28T02:24:42;98447.94;;;5.94;nan
9831;BME280;4954;48.476;8.168;2024-02-28T02:27:09;98445.34;;;5.91;nan
9831;BME280;4954;48.476;8.168;2024-02-28T02:29:36;98451.28;;;5.93;nan
9831;BME280;4954;48.476;8.168;2024-02-28T02:32:03;98452.16;;;5.95;nan
9831;BME280;4954;48.476;8.168;2024-02-28T02:34:30;98457.28;;;5.97;nan
9831;BME280;4954;48.476;8.168;2024-02-28T02:36:57;98452.16;;;5.94;nan
9831;BME280;4954;48.476;8.168;2024-02-28T02:39:24;98458.88;;;5.93;nan
9831;BME280;4954;48.476;8.168;2024-02-28T02:41:53;98464.00;;;5.96;nan
9831;BME280;4954;48.476;8.168;2024-02-28T02:44:20;98471.59;;;5.98;nan
9831;BME280;4954;48.476;8.168;2024-02-28T02:46:46;98473.34;;;6.00;nan
9831;BME280;4954;48.476;8.168;2024-02-28T02:49:14;98478.47;;;6.02;nan
9831;BME280;4954;48.476;8.168;2024-02-28T02:51:42;98485.22;;;6.03;nan
9831;BME280;4954;48.476;8.168;2024-02-28T02:54:09;98485.31;;;6.06;nan
9831;BME280;4954;48.476;8.168;2024-02-28T02:56:36;98481.97;;;6.07;nan
9831;BME280;4954;48.476;8.168;2024-02-28T02:59:04;98482.88;;;6.09;nan
9831;BME280;4954;48.476;8.168;2024-02-28T03:01:31;98484.50;;;6.07;nan
9831;BME280;4954;48.476;8.168;2024-02-28T03:03:58;98482.84;;;6.07;nan
9831;BME280;4954;48.476;8.168;2024-02-28T03:06:25;98484.50;;;6.07;nan
9831;BME280;4954;48.476;8.168;2024-02-28T03:08:52;98488.66;;;6.05;nan
9831;BME280;4954;48.476;8.168;2024-02-28T03:11:19;98496.28;;;6.08;nan
9831;BME280;4954;48.476;8.168;2024-02-28T03:13:46;98498.97;;;6.12;nan
9831;BME280;4954;48.476;8.168;2024-02-28T03:16:15;98502.31;;;6.11;nan
9831;BME280;4954;48.476;8.168;2024-02-28T03:18:42;98503.09;;;6.10;nan
9831;BME280;4954;48.476;8.168;2024-02-28T03:21:09;98498.91;;;6.11;nan
9831;BME280;4954;48.476;8.168;2024-02-28T03:23:36;98492.94;;;6.07;nan
9831;BME280;4954;48.476;8.168;2024-02-28T03:26:03;98499.56;;;6.04;nan
9831;BME280;4954;48.476;8.168;2024-02-28T03:28:30;98500.31;;;6.00;nan
9831;BME280;4954;48.476;8.168;2024-02-28T03:30:57;98505.19;;;5.95;nan
9831;BME280;4954;48.476;8.168;2024-02-28T03:33:25;98509.38;;;5.93;nan
9831;BME280;4954;48.476;8.168;2024-02-28T03:35:52;98521.13;;;5.93;nan
9831;BME280;4954;48.476;8.168;2024-02-28T03:38:19;98522.81;;;5.92;nan
9831;BME280;4954;48.476;8.168;2024-02-28T03:40:46;98529.47;;;5.90;nan
9831;BME280;4954;48.476;8.168;2024-02-28T03:43:13;98520.13;;;5.86;nan
9831;BME280;4954;48.476;8.168;2024-02-28T03:45:40;98523.22;;;5.79;nan
9831;BME280;4954;48.476;8.168;2024-02-28T03:48:07;98522.13;;;5.71;nan
9831;BME280;4954;48.476;8.168;2024-02-28T03:50:36;98534.69;;;5.68;nan
9831;BME280;4954;48.476;8.168;2024-02-28T03:53:03;98536.09;;;5.60;nan
9831;BME280;4954;48.476;8.168;2024-02-28T03:55:30;98535.81;;;5.51;nan
9831;BME280;4954;48.476;8.168;2024-02-28T03:57:58;98546.75;;;5.50;nan
9831;BME280;4954;48.476;8.168;2024-02-28T04:00:25;98544.13;;;5.47;nan
9831;BME280;4954;48.476;8.168;2024-02-28T04:02:52;98538.09;;;5.42;nan
9831;BME280;4954;48.476;8.168;2024-02-28T04:05:19;98541.41;;;5.41;nan
9831;BME280;4954;48.476;8.168;2024-02-28T04:07:47;98540.50;;;5.39;nan
9831;BME280;4954;48.476;8.168;2024-02-28T04:10:14;98543.84;;;5.38;nan
9831;BME280;4954;48.476;8.168;2024-02-28T04:12:42;98542.16;;;5.37;nan
9831;BME280;4954;48.476;8.168;2024-02-28T04:15:10;98547.97;;;5.36;nan
9831;BME280;4954;48.476;8.168;2024-02-28T04:17:38;98553.88;;;5.37;nan
9831;BME280;4954;48.476;8.168;2024-02-28T04:20:08;98553.84;;;5.35;nan
9831;BME280;4954;48.476;8.168;2024-02-28T04:22:36;98551.25;;;5.34;nan
9831;BME280;4954;48.476;8.168;2024-02-28T04:25:05;98557.81;;;5.27;nan
9831;BME280;4954;48.476;8.168;2024-02-28T04:27:34;98559.44;;;5.27;nan
9831;BME280;4954;48.476;8.168;2024-02-28T04:30:01;98561.72;;;5.19;nan
9831;BME280;4954;48.476;8.168;2024-02-28T04:32:27;98565.78;;;5.14;nan
9831;BME280;4954;48.476;8.168;2024-02-28T04:34:54;98567.41;;;5.12;nan
9831;BME280;4954;48.476;8.168;2024-02-28T04:37:21;98565.66;;;5.11;nan
9831;BME280;4954;48.476;8.168;2024-02-28T04:39:48;98574.84;;;5.09;nan
9831;BME280;4954;48.476;8.168;2024-02-28T04:42:17;98574.22;;;5.15;nan
9831;BME280;4954;48.476;8.168;2024-02-28T04:44:44;98581.16;;;5.22;nan
9831;BME280;4954;48.476;8.168;2024-02-28T04:47:11;98578.81;;;5.28;nan
9831;BME280;4954;48.476;8.168;2024-02-28T04:49:38;98577.16;;;5.28;nan
9831;BME280;4954;48.476;8.168;2024-02-28T04:52:05;98581.44;;;5.31;nan
9831;BME280;4954;48.476;8.168;2024-02-28T04:54:32;98574.72;;;5.31;nan
9831;BME280;4954;48.476;8.168;2024-02-28T04:57:00;98581.41;;;5.29;nan
9831;BME280;4954;48.476;8.168;2024-02-28T04:59:29;98572.81;;;5.24;nan
9831;BME280;4954;48.476;8.168;2024-02-28T05:01:57;98581.66;;;5.12;nan
9831;BME280;4954;48.476;8.168;2024-02-28T05:04:24;98576.25;;;5.01;nan
9831;BME280;4954;48.476;8.168;2024-02-28T05:06:51;98571.72;;;4.91;nan
9831;BME280;4954;48.476;8.168;2024-02-28T05:09:18;98567.94;;;4.79;nan
9831;BME280;4954;48.476;8.168;2024-02-28T05:11:45;98571.00;;;4.70;nan
9831;BME280;4954;48.476;8.168;2024-02-28T05:14:12;98574.22;;;4.66;nan
9831;BME280;4954;48.476;8.168;2024-02-28T05:16:40;98577.41;;;4.61;nan
9831;BME280;4954;48.476;8.168;2024-02-28T05:19:07;98583.13;;;4.57;nan
9831;BME280;4954;48.476;8.168;2024-02-28T05:21:39;98581.19;;;4.50;nan
9831;BME280;4954;48.476;8.168;2024-02-28T05:24:07;98583.22;;;4.36;nan
9831;BME280;4954;48.476;8.168;2024-02-28T05:26:35;98577.09;;;4.30;nan
9831;BME280;4954;48.476;8.168;2024-02-28T05:29:03;98587.03;;;4.25;nan
9831;BME280;4954;48.476;8.168;2024-02-28T05:31:31;98593.63;;;4.22;nan
9831;BME280;4954;48.476;8.168;2024-02-28T05:34:00;98595.06;;;4.15;nan
9831;BME280;4954;48.476;8.168;2024-02-28T05:36:28;98600.25;;;4.20;nan
9831;BME280;4954;48.476;8.168;2024-02-28T05:38:58;98602.69;;;4.18;nan
9831;BME280;4954;48.476;8.168;2024-02-28T05:41:26;98617.03;;;4.19;nan
9831;BME280;4954;48.476;8.168;2024-02-28T05:43:54;98614.50;;;4.19;nan
9831;BME280;4954;48.476;8.168;2024-02-28T05:46:21;98618.84;;;4.23;nan
9831;BME280;4954;48.476;8.168;2024-02-28T05:48:49;98622.44;;;4.30;nan
9831;BME280;4954;48.476;8.168;2024-02-28T05:51:17;98624.91;;;4.28;nan
9831;BME280;4954;48.476;8.168;2024-02-28T05:53:44;98625.63;;;4.24;nan
9831;BME280;4954;48.476;8.168;2024-02-28T05:56:11;98629.84;;;4.25;nan
9831;BME280;4954;48.476;8.168;2024-02-28T05:58:40;98629.16;;;4.29;nan
9831;BME280;4954;48.476;8.168;2024-02-28T06:01:08;98627.53;;;4.31;nan
9831;BME280;4954;48.476;8.168;2024-02-28T06:03:35;98635.31;;;4.37;nan
9831;BME280;4954;48.476;8.168;2024-02-28T06:06:04;98638.78;;;4.41;nan
9831;BME280;4954;48.476;8.168;2024-02-28T06:08:34;98638.91;;;4.44;nan
9831;BME280;4954;48.476;8.168;2024-02-28T06:11:04;98639.94;;;4.49;nan
9831;BME280;4954;48.476;8.168;2024-02-28T06:13:31;98648.47;;;4.52;nan
9831;BME280;4954;48.476;8.168;2024-02-28T06:15:59;98646.97;;;4.57;nan
9831;BME280;4954;48.476;8.168;2024-02-28T06:18:27;98645.53;;;4.64;nan
9831;BME280;4954;48.476;8.168;2024-02-28T06:20:54;98644.09;;;4.70;nan
9831;BME280;4954;48.476;8.168;2024-02-28T06:23:22;98646.75;;;4.75;nan
9831;BME280;4954;48.476;8.168;2024-02-28T06:25:52;98653.69;;;4.80;nan
9831;BME280;4954;48.476;8.168;2024-02-28T06:28:19;98641.97;;;4.82;nan
9831;BME280;4954;48.476;8.168;2024-02-28T06:30:46;98642.72;;;4.80;nan
9831;BME280;4954;48.476;8.168;2024-02-28T06:33:13;98659.63;;;4.82;nan
9831;BME280;4954;48.476;8.168;2024-02-28T06:35:40;98658.09;;;4.86;nan
9831;BME280;4954;48.476;8.168;2024-02-28T06:38:08;98662.41;;;4.90;nan
9831;BME280;4954;48.476;8.168;2024-02-28T06:40:35;98672.75;;;4.96;nan
9831;BME280;4954;48.476;8.168;2024-02-28T06:43:04;98671.19;;;4.99;nan
9831;BME280;4954;48.476;8.168;2024-02-28T06:45:31;98673.78;;;5.02;nan
9831;BME280;4954;48.476;8.168;2024-02-28T06:47:58;98690.81;;;5.08;nan
9831;BME280;4954;48.476;8.168;2024-02-28T06:50:25;98686.72;;;5.11;nan
9831;BME280;4954;48.476;8.168;2024-02-28T06:52:52;98690.38;;;5.19;nan
9831;BME280;4954;48.476;8.168;2024-02-28T06:55:19;98693.16;;;5.27;nan
9831;BME280;4954;48.476;8.168;2024-02-28T06:57:46;98695.94;;;5.34;nan
9831;BME280;4954;48.476;8.168;2024-02-28T07:00:15;98696.94;;;5.39;nan
9831;BME280;4954;48.476;8.168;2024-02-28T07:02:44;98697.75;;;5.38;nan
9831;BME280;4954;48.476;8.168;2024-02-28T07:05:11;98695.44;;;5.44;nan
9831;BME280;4954;48.476;8.168;2024-02-28T07:07:38;98698.81;;;5.45;nan
9831;BME280;4954;48.476;8.168;2024-02-28T07:10:05;98702.03;;;5.41;nan
9831;BME280;4954;48.476;8.168;2024-02-28T07:12:33;98707.22;;;5.45;nan
9831;BME280;4954;48.476;8.168;2024-02-28T07:15:00;98710.88;;;5.53;nan
9831;BME280;4954;48.476;8.168;2024-02-28T07:17:28;98704.41;;;5.61;nan
9831;BME280;4954;48.476;8.168;2024-02-28T07:19:55;98718.44;;;5.78;nan
9831;BME280;4954;48.476;8.168;2024-02-28T07:22:22;98726.44;;;6.17;nan
9831;BME280;4954;48.476;8.168;2024-02-28T07:24:49;98717.50;;;6.54;nan
9831;BME280;4954;48.476;8.168;2024-02-28T07:27:16;98721.16;;;6.93;nan
9831;BME280;4954;48.476;8.168;2024-02-28T07:29:43;98731.69;;;7.08;nan
9831;BME280;4954;48.476;8.168;2024-02-28T07:32:10;98733.19;;;7.02;nan
9831;BME280;4954;48.476;8.168;2024-02-28T07:34:38;98748.16;;;6.94;nan
9831;BME280;4954;48.476;8.168;2024-02-28T07:37:06;98749.19;;;7.01;nan
9831;BME280;4954;48.476;8.168;2024-02-28T07:39:33;98744.66;;;6.89;nan
9831;BME280;4954;48.476;8.168;2024-02-28T07:42:00;98748.16;;;6.94;nan
9831;BME280;4954;48.476;8.168;2024-02-28T07:44:27;98759.81;;;6.89;nan
9831;BME280;4954;48.476;8.168;2024-02-28T07:46:56;98755.63;;;6.90;nan
9831;BME280;4954;48.476;8.168;2024-02-28T07:49:24;98753.81;;;6.86;nan
9831;BME280;4954;48.476;8.168;2024-02-28T07:51:52;98755.03;;;6.98;nan
9831;BME280;4954;48.476;8.168;2024-02-28T07:54:20;98752.03;;;7.11;nan
9831;BME280;4954;48.476;8.168;2024-02-28T07:56:47;98748.16;;;7.24;nan
9831;BME280;4954;48.476;8.168;2024-02-28T07:59:15;98750.25;;;7.38;nan
9831;BME280;4954;48.476;8.168;2024-02-28T08:01:42;98752.88;;;7.41;nan
9831;BME280;4954;48.476;8.168;2024-02-28T08:04:10;98746.53;;;7.26;nan
9831;BME280;4954;48.476;8.168;2024-02-28T08:06:39;98749.72;;;7.50;nan
9831;BME280;4954;48.476;8.168;2024-02-28T08:09:07;98747.97;;;7.47;nan
9831;BME280;4954;48.476;8.168;2024-02-28T08:11:35;98749.09;;;7.27;nan
9831;BME280;4954;48.476;8.168;2024-02-28T08:14:02;98753.16;;;7.52;nan
9831;BME280;4954;48.476;8.168;2024-02-28T08:16:29;98764.28;;;7.58;nan
9831;BME280;4954;48.476;8.168;2024-02-28T08:18:55;98759.41;;;7.64;nan
9831;BME280;4954;48.476;8.168;2024-02-28T08:21:24;98766.63;;;7.51;nan
9831;BME280;4954;48.476;8.168;2024-02-28T08:23:51;98764.84;;;7.17;nan
9831;BME280;4954;48.476;8.168;2024-02-28T08:26:20;98767.72;;;7.00;nan
9831;BME280;4954;48.476;8.168;2024-02-28T08:28:47;98770.41;;;7.04;nan
9831;BME280;4954;48.476;8.168;2024-02-28T08:31:14;98768.50;;;7.27;nan
9831;BME280;4954;48.476;8.168;2024-02-28T08:33:41;98777.88;;;7.60;nan
9831;BME280;4954;48.476;8.168;2024-02-28T08:36:08;98768.28;;;7.81;nan
9831;BME280;4954;48.476;8.168;2024-02-28T08:38:35;98772.59;;;7.85;nan
9831;BME280;4954;48.476;8.168;2024-02-28T08:41:04;98775.75;;;8.09;nan
9831;BME280;4954;48.476;8.168;2024-02-28T08:43:37;98761.16;;;8.70;nan
9831;BME280;4954;48.476;8.168;2024-02-28T08:46:05;98754.44;;;9.12;nan
9831;BME280;4954;48.476;8.168;2024-02-28T08:48:32;98769.25;;;9.34;nan
9831;BME280;4954;48.476;8.168;2024-02-28T08:50:59;98768.22;;;9.25;nan
9831;BME280;4954;48.476;8.168;2024-02-28T08:53:26;98773.97;;;9.15;nan
9831;BME280;4954;48.476;8.168;2024-02-28T08:55:53;98774.00;;;9.16;nan
9831;BME280;4954;48.476;8.168;2024-02-28T08:58:21;98775.38;;;9.45;nan
9831;BME280;4954;48.476;8.168;2024-02-28T09:00:49;98763.69;;;11.12;nan
9831;BME280;4954;48.476;8.168;2024-02-28T09:03:16;98763.75;;;11.90;nan
9831;BME280;4954;48.476;8.168;2024-02-28T09:05:44;98759.69;;;13.56;nan
9831;BME280;4954;48.476;8.168;2024-02-28T09:08:11;98756.38;;;14.04;nan
9831;BME280;4954;48.476;8.168;2024-02-28T09:10:38;98750.41;;;14.66;nan
9831;BME280;4954;48.476;8.168;2024-02-28T09:13:05;98751.91;;;15.29;nan
9831;BME280;4954;48.476;8.168;2024-02-28T09:15:33;98754.50;;;15.26;nan
9831;BME280;4954;48.476;8.168;2024-02-28T09:18:03;98744.59;;;16.16;nan
9831;BME280;4954;48.476;8.168;2024-02-28T09:20:30;98754.53;;;17.35;nan
9831;BME280;4954;48.476;8.168;2024-02-28T09:22:57;98742.53;;;17.96;nan
9831;BME280;4954;48.476;8.168;2024-02-28T09:25:24;98746.88;;;17.94;nan
9831;BME280;4954;48.476;8.168;2024-02-28T09:27:51;98739.88;;;18.55;nan
9831;BME280;4954;48.476;8.168;2024-02-28T09:30:18;98743.97;;;18.15;nan
9831;BME280;4954;48.476;8.168;2024-02-28T09:32:45;98747.91;;;17.81;nan
9831;BME280;4954;48.476;8.168;2024-02-28T09:35:15;98745.22;;;17.89;nan
9831;BME280;4954;48.476;8.168;2024-02-28T09:37:42;98729.66;;;17.98;nan
9831;BME280;4954;48.476;8.168;2024-02-28T09:40:10;98732.72;;;17.65;nan
9831;BME280;4954;48.476;8.168;2024-02-28T09:42:38;98740.91;;;17.92;nan
9831;BME280;4954;48.476;8.168;2024-02-28T09:45:08;98730.44;;;18.56;nan
9831;BME280;4954;48.476;8.168;2024-02-28T09:47:39;98730.84;;;18.29;nan
9831;BME280;4954;48.476;8.168;2024-02-28T09:50:07;98726.22;;;18.50;nan
9831;BME280;4954;48.476;8.168;2024-02-28T09:52:36;98723.56;;;19.00;nan
9831;BME280;4954;48.476;8.168;2024-02-28T09:55:04;98726.28;;;19.78;nan
9831;BME280;4954;48.476;8.168;2024-02-28T09:57:32;98733.00;;;20.88;nan
9831;BME280;4954;48.476;8.168;2024-02-28T10:00:01;98723.53;;;21.19;nan
9831;BME280;4954;48.476;8.168;2024-02-28T10:02:30;98727.09;;;21.15;nan
9831;BME280;4954;48.476;8.168;2024-02-28T10:04:59;98730.66;;;21.71;nan
9831;BME280;4954;48.476;8.168;2024-02-28T10:07:29;98731.41;;;20.83;nan
9831;BME280;4954;48.476;8.168;2024-02-28T10:09:57;98733.47;;;21.02;nan
9831;BME280;4954;48.476;8.168;2024-02-28T10:12:25;98732.75;;;21.57;nan
9831;BME280;4954;48.476;8.168;2024-02-28T10:14:51;98729.50;;;21.50;nan
9831;BME280;4954;48.476;8.168;2024-02-28T10:17:19;98725.44;;;22.52;nan
9831;BME280;4954;48.476;8.168;2024-02-28T10:19:45;98733.94;;;21.16;nan
9831;BME280;4954;48.476;8.168;2024-02-28T10:22:12;98735.22;;;21.02;nan
9831;BME280;4954;48.476;8.168;2024-02-28T10:24:39;98741.28;;;21.89;nan
9831;BME280;4954;48.476;8.168;2024-02-28T10:27:08;98733.91;;;21.18;nan
9831;BME280;4954;48.476;8.168;2024-02-28T10:29:34;98731.44;;;22.00;nan
9831;BME280;4954;48.476;8.168;2024-02-28T10:32:01;98731.34;;;21.76;nan
9831;BME280;4954;48.476;8.168;2024-02-28T10:34:31;98741.03;;;21.40;nan
9831;BME280;4954;48.476;8.168;2024-02-28T10:37:01;98743.50;;;20.15;nan
9831;BME280;4954;48.476;8.168;2024-02-28T10:39:30;98745.91;;;18.56;nan
9831;BME280;4954;48.476;8.168;2024-02-28T10:42:00;98753.53;;;16.71;nan
9831;BME280;4954;48.476;8.168;2024-02-28T10:44:29;98753.94;;;16.23;nan
9831;BME280;4954;48.476;8.168;2024-02-28T10:46:59;98756.47;;;16.28;nan
9831;BME280;4954;48.476;8.168;2024-02-28T10:49:27;98764.47;;;16.88;nan
9831;BME280;4954;48.476;8.168;2024-02-28T10:51:56;98768.38;;;17.24;nan
9831;BME280;4954;48.476;8.168;2024-02-28T10:54:29;98776.72;;;16.67;nan
9831;BME280;4954;48.476;8.168;2024-02-28T10:56:57;98789.06;;;16.21;nan
9831;BME280;4954;48.476;8.168;2024-02-28T10:59:32;98787.75;;;16.73;nan
9831;BME280;4954;48.476;8.168;2024-02-28T11:02:01;98785.59;;;16.25;nan
9831;BME280;4954;48.476;8.168;2024-02-28T11:04:29;98797.97;;;15.60;nan
9831;BME280;4954;48.476;8.168;2024-02-28T11:06:58;98801.59;;;14.84;nan
9831;BME280;4954;48.476;8.168;2024-02-28T11:09:26;98806.72;;;14.74;nan
9831;BME280;4954;48.476;8.168;2024-02-28T11:11:56;98803.19;;;15.32;nan
9831;BME280;4954;48.476;8.168;2024-02-28T11:14:23;98806.63;;;15.31;nan
9831;BME280;4954;48.476;8.168;2024-02-28T11:17:00;98800.78;;;14.45;nan
9831;BME280;4954;48.476;8.168;2024-02-28T11:19:29;98820.16;;;13.48;nan
9831;BME280;4954;48.476;8.168;2024-02-28T11:21:58;98809.19;;;13.76;nan
9831;BME280;4954;48.476;8.168;2024-02-28T11:24:29;98805.72;;;13.58;nan
9831;BME280;4954;48.476;8.168;2024-02-28T11:26:57;98809.91;;;13.42;nan
9831;BME280;4954;48.476;8.168;2024-02-28T11:29:25;98817.75;;;14.01;nan
9831;BME280;4954;48.476;8.168;2024-02-28T11:31:54;98814.34;;;13.85;nan
9831;BME280;4954;48.476;8.168;2024-02-28T11:34:23;98816.81;;;13.55;nan
9831;BME280;4954;48.476;8.168;2024-02-28T11:36:50;98814.97;;;13.27;nan
9831;BME280;4954;48.476;8.168;2024-02-28T11:39:18;98800.56;;;13.44;nan
9831;BME280;4954;48.476;8.168;2024-02-28T11:41:46;98809.16;;;13.57;nan
9831;BME280;4954;48.476;8.168;2024-02-28T11:44:15;98804.94;;;13.93;nan
9831;BME280;4954;48.476;8.168;2024-02-28T11:46:44;98797.38;;;14.20;nan
9831;BME280;4954;48.476;8.168;2024-02-28T11:49:12;98804.97;;;13.84;nan
9831;BME280;4954;48.476;8.168;2024-02-28T11:51:41;98807.38;;;13.42;nan
9831;BME280;4954;48.476;8.168;2024-02-28T11:54:08;98806.78;;;12.51;nan
9831;BME280;4954;48.476;8.168;2024-02-28T11:56:38;98804.91;;;12.30;nan
9831;BME280;4954;48.476;8.168;2024-02-28T11:59:06;98802.78;;;11.84;nan
9831;BME280;4954;48.476;8.168;2024-02-28T12:01:36;98808.50;;;11.64;nan
9831;BME280;4954;48.476;8.168;2024-02-28T12:04:05;98803.06;;;12.13;nan
9831;BME280;4954;48.476;8.168;2024-02-28T12:06:33;98810.34;;;12.75;nan
9831;BME280;4954;48.476;8.168;2024-02-28T12:09:03;98806.47;;;13.34;nan
9831;BME280;4954;48.476;8.168;2024-02-28T12:11:31;98797.22;;;13.65;nan
9831;BME280;4954;48.476;8.168;2024-02-28T12:13:58;98800.72;;;14.10;nan
9831;BME280;4954;48.476;8.168;2024-02-28T12:16:30;98798.19;;;14.12;nan
9831;BME280;4954;48.476;8.168;2024-02-28T12:18:57;98800.78;;;14.24;nan
9831;BME280;4954;48.476;8.168;2024-02-28T12:21:25;98792.25;;;14.38;nan
9831;BME280;4954;48.476;8.168;2024-02-28T12:23:52;98782.81;;;14.01;nan
9831;BME280;4954;48.476;8.168;2024-02-28T12:26:20;98779.41;;;14.05;nan
9831;BME280;4954;48.476;8.168;2024-02-28T12:28:47;98775.94;;;13.78;nan
9831;BME280;4954;48.476;8.168;2024-02-28T12:31:15;98772.53;;;13.80;nan
9831;BME280;4954;48.476;8.168;2024-02-28T12:33:45;98767.47;;;14.16;nan
9831;BME280;4954;48.476;8.168;2024-02-28T12:36:13;98767.34;;;13.44;nan
9831;BME280;4954;48.476;8.168;2024-02-28T12:38:40;98756.34;;;13.69;nan
9831;BME280;4954;48.476;8.168;2024-02-28T12:41:08;98753.78;;;13.81;nan
9831;BME280;4954;48.476;8.168;2024-02-28T12:43:36;98748.66;;;13.93;nan
9831;BME280;4954;48.476;8.168;2024-02-28T12:46:05;98754.66;;;13.94;nan
9831;BME280;4954;48.476;8.168;2024-02-28T12:48:37;98764.03;;;13.87;nan
9831;BME280;4954;48.476;8.168;2024-02-28T12:51:04;98751.94;;;13.26;nan
9831;BME280;4954;48.476;8.168;2024-02-28T12:53:32;98758.06;;;12.19;nan
9831;BME280;4954;48.476;8.168;2024-02-28T12:55:59;98758.72;;;11.96;nan
9831;BME280;4954;48.476;8.168;2024-02-28T12:58:26;98746.56;;;11.74;nan
9831;BME280;4954;48.476;8.168;2024-02-28T13:00:54;98752.72;;;11.92;nan
9831;BME280;4954;48.476;8.168;2024-02-28T13:03:22;98753.34;;;11.67;nan
9831;BME280;4954;48.476;8.168;2024-02-28T13:05:48;98737.78;;;12.36;nan
9831;BME280;4954;48.476;8.168;2024-02-28T13:08:15;98754.47;;;13.19;nan
9831;BME280;4954;48.476;8.168;2024-02-28T13:10:42;98751.84;;;13.08;nan
9831;BME280;4954;48.476;8.168;2024-02-28T13:13:09;98742.50;;;13.12;nan
9831;BME280;4954;48.476;8.168;2024-02-28T13:15:36;98736.28;;;12.66;nan
9831;BME280;4954;48.476;8.168;2024-02-28T13:18:05;98737.00;;;12.50;nan
9831;BME280;4954;48.476;8.168;2024-02-28T13:20:36;98746.44;;;12.60;nan
9831;BME280;4954;48.476;8.168;2024-02-28T13:23:05;98738.84;;;12.66;nan
9831;BME280;4954;48.476;8.168;2024-02-28T13:25:32;98734.78;;;13.04;nan
9831;BME280;4954;48.476;8.168;2024-02-28T13:27:59;98727.88;;;12.88;nan
9831;BME280;4954;48.476;8.168;2024-02-28T13:30:27;98726.22;;;12.90;nan
9831;BME280;4954;48.476;8.168;2024-02-28T13:32:54;98728.72;;;12.81;nan
9831;BME280;4954;48.476;8.168;2024-02-28T13:35:23;98739.88;;;12.98;nan
9831;BME280;4954;48.476;8.168;2024-02-28T13:37:50;98734.66;;;12.80;nan
9831;BME280;4954;48.476;8.168;2024-02-28T13:40:18;98730.41;;;12.82;nan
9831;BME280;4954;48.476;8.168;2024-02-28T13:42:45;98735.41;;;12.61;nan
9831;BME280;4954;48.476;8.168;2024-02-28T13:45:13;98732.88;;;12.70;nan
9831;BME280;4954;48.476;8.168;2024-02-28T13:47:41;98730.03;;;12.24;nan
9831;BME280;4954;48.476;8.168;2024-02-28T13:50:08;98735.06;;;12.13;nan
9831;BME280;4954;48.476;8.168;2024-02-28T13:52:37;98731.50;;;11.95;nan
9831;BME280;4954;48.476;8.168;2024-02-28T13:55:05;98731.44;;;11.90;nan